Coldwater, MI

9:33 AM EDT on March 30, 2017 (GMT -0400)
Branch County Memorial | | Change Station

Elev 958 ft 41.93 °N, 85.05 °W | Updated 19 minutes ago

Light Rain
Light Rain
39 °F
Feels Like 31 °F
N
15
Wind Variable Wind from East
Gusts 20 mph

Today
High -- | Low -- °F
--% Chance of Precip.
Yesterday
High -- | Low -- °F
Precip. -- in
Pressure 29.94 in
Visibility 4.0 miles
Clouds Mostly Cloudy 1200 ft
Mostly Cloudy 2400 ft
Overcast 4700 ft
Windchill 31 °F
Dew Point 37 °F
Humidity 93%
Rainfall 0.00 in
Snow Depth Not available.
7:25 AM 8:03 PM
Waxing Crescent, 8% visible
METAR KOEB 301314Z AUTO 09013G17KT 4SM -RA BKN012 BKN024 OVC047 04/03 A2994 RMK AO2 T00400030
Pressure 29.94 in
Visibility 4.0 miles
Clouds Mostly Cloudy 1200 ft
Mostly Cloudy 2400 ft
Overcast 4700 ft
Windchill 31 °F
Dew Point 37 °F
Humidity 93%
Rainfall 0.00 in
Snow Depth Not available.
7:25 AM 8:03 PM
Waxing Crescent, 8% visible
METAR KOEB 301314Z AUTO 09013G17KT 4SM -RA BKN012 BKN024 OVC047 04/03 A2994 RMK AO2 T00400030

Get Severe Weather Alerts

Thanks for signing up!

Be on the lookout for a verification email in your inbox.

You'll start receiving the daily forecast at 8 AM.

×

10-Day Weather Forecast

Almanac

Astronomy

Mar. 30, 2017 Rise Set
Actual Time
Civil Twilight
Nautical Twilight
Astronomical Twilight
Moon
Length of Visible Light
Length of Day
Tomorrow will be .
, % of the Moon is Illuminated

Today's Extremes

State Highs State Lows

Community

WunderPhotos

Upload Photos

1,962,540 photos uploaded!

WunderBlog® & News

Nearby

Air Quality

  Air Quality AQ Index Pollutant
Not available.

Snow Depth

Station Depth Elevation

Earthquake Activity

City Distance Mag. Time & Date
Minimum magnitude displayed is 2.5.

Earthquake Activity

City Distance Mag. Time & Date
Minimum magnitude displayed is 2.5.

Coastal Water Temperatures

Place Temperature

Stations

Nearby Weather Stations

Station Location Temp. Windchill Dew Point Humidity Wind Precip. Elev Updated Type
                   

Watches & Warnings

There are currently no watches in effect.